sensor_id;sensor_type;location;lat;lon;timestamp;P1;durP1;ratioP1;P2;durP2;ratioP2
6941;SDS011;3510;43.200;27.920;2023-08-17T00:01:19;5.97;;;3.25;;
6941;SDS011;3510;43.200;27.920;2023-08-17T00:03:46;5.10;;;2.88;;
6941;SDS011;3510;43.200;27.920;2023-08-17T00:06:19;2.80;;;2.60;;
6941;SDS011;3510;43.200;27.920;2023-08-17T00:08:47;4.07;;;2.92;;
6941;SDS011;3510;43.200;27.920;2023-08-17T00:11:13;4.32;;;2.85;;
6941;SDS011;3510;43.200;27.920;2023-08-17T00:13:40;3.35;;;2.88;;
6941;SDS011;3510;43.200;27.920;2023-08-17T00:16:07;6.78;;;2.85;;
6941;SDS011;3510;43.200;27.920;2023-08-17T00:21:17;6.53;;;2.50;;
6941;SDS011;3510;43.200;27.920;2023-08-17T00:23:44;3.80;;;2.47;;
6941;SDS011;3510;43.200;27.920;2023-08-17T00:26:10;3.97;;;2.90;;
6941;SDS011;3510;43.200;27.920;2023-08-17T00:28:51;3.35;;;3.05;;
6941;SDS011;3510;43.200;27.920;2023-08-17T00:31:32;3.15;;;2.70;;
6941;SDS011;3510;43.200;27.920;2023-08-17T00:58:55;3.25;;;2.95;;
6941;SDS011;3510;43.200;27.920;2023-08-17T01:01:22;5.00;;;3.00;;
6941;SDS011;3510;43.200;27.920;2023-08-17T01:04:04;2.55;;;2.35;;
6941;SDS011;3510;43.200;27.920;2023-08-17T01:06:44;3.17;;;2.88;;
6941;SDS011;3510;43.200;27.920;2023-08-17T01:09:25;2.33;;;2.22;;
6941;SDS011;3510;43.200;27.920;2023-08-17T01:12:08;2.83;;;2.35;;
6941;SDS011;3510;43.200;27.920;2023-08-17T01:14:50;2.85;;;2.70;;
6941;SDS011;3510;43.200;27.920;2023-08-17T01:17:24;4.00;;;2.60;;
6941;SDS011;3510;43.200;27.920;2023-08-17T01:19:55;3.88;;;2.20;;
6941;SDS011;3510;43.200;27.920;2023-08-17T01:22:24;2.35;;;2.25;;
6941;SDS011;3510;43.200;27.920;2023-08-17T01:24:59;4.78;;;2.65;;
6941;SDS011;3510;43.200;27.920;2023-08-17T01:27:32;2.83;;;2.33;;
6941;SDS011;3510;43.200;27.920;2023-08-17T01:30:03;2.40;;;2.30;;
6941;SDS011;3510;43.200;27.920;2023-08-17T01:32:32;3.75;;;2.40;;
6941;SDS011;3510;43.200;27.920;2023-08-17T01:35:09;3.28;;;2.70;;
6941;SDS011;3510;43.200;27.920;2023-08-17T01:37:42;3.17;;;2.92;;
6941;SDS011;3510;43.200;27.920;2023-08-17T01:46:44;2.80;;;2.70;;
6941;SDS011;3510;43.200;27.920;2023-08-17T01:49:12;4.45;;;3.08;;
6941;SDS011;3510;43.200;27.920;2023-08-17T01:51:39;2.97;;;2.75;;
6941;SDS011;3510;43.200;27.920;2023-08-17T01:54:06;4.05;;;2.85;;
6941;SDS011;3510;43.200;27.920;2023-08-17T01:56:33;3.08;;;2.97;;
6941;SDS011;3510;43.200;27.920;2023-08-17T01:58:59;3.20;;;2.90;;
6941;SDS011;3510;43.200;27.920;2023-08-17T02:01:26;4.00;;;3.70;;
6941;SDS011;3510;43.200;27.920;2023-08-17T02:03:54;6.95;;;3.10;;
6941;SDS011;3510;43.200;27.920;2023-08-17T02:06:22;3.03;;;2.83;;
6941;SDS011;3510;43.200;27.920;2023-08-17T02:08:53;3.63;;;3.15;;
6941;SDS011;3510;43.200;27.920;2023-08-17T02:11:19;3.42;;;3.13;;
6941;SDS011;3510;43.200;27.920;2023-08-17T02:13:46;4.30;;;3.80;;
6941;SDS011;3510;43.200;27.920;2023-08-17T02:16:15;3.28;;;2.88;;
6941;SDS011;3510;43.200;27.920;2023-08-17T02:18:42;3.45;;;3.17;;
6941;SDS011;3510;43.200;27.920;2023-08-17T02:21:10;4.40;;;3.40;;
6941;SDS011;3510;43.200;27.920;2023-08-17T02:23:50;3.97;;;2.90;;
6941;SDS011;3510;43.200;27.920;2023-08-17T02:26:17;3.60;;;3.10;;
6941;SDS011;3510;43.200;27.920;2023-08-17T02:28:58;4.75;;;3.08;;
6941;SDS011;3510;43.200;27.920;2023-08-17T02:31:24;3.47;;;3.20;;
6941;SDS011;3510;43.200;27.920;2023-08-17T02:33:51;2.97;;;2.70;;
6941;SDS011;3510;43.200;27.920;2023-08-17T02:36:19;4.32;;;3.40;;
6941;SDS011;3510;43.200;27.920;2023-08-17T02:38:46;3.70;;;3.42;;
6941;SDS011;3510;43.200;27.920;2023-08-17T02:41:12;3.20;;;3.00;;
6941;SDS011;3510;43.200;27.920;2023-08-17T02:43:53;6.57;;;3.38;;
6941;SDS011;3510;43.200;27.920;2023-08-17T02:46:33;4.03;;;3.72;;
6941;SDS011;3510;43.200;27.920;2023-08-17T02:49:00;3.40;;;3.10;;
6941;SDS011;3510;43.200;27.920;2023-08-17T03:01:12;4.13;;;3.17;;
6941;SDS011;3510;43.200;27.920;2023-08-17T03:03:53;5.70;;;3.90;;
6941;SDS011;3510;43.200;27.920;2023-08-17T03:06:33;4.25;;;3.83;;
6941;SDS011;3510;43.200;27.920;2023-08-17T03:09:14;4.43;;;4.10;;
6941;SDS011;3510;43.200;27.920;2023-08-17T03:11:41;5.05;;;4.07;;
6941;SDS011;3510;43.200;27.920;2023-08-17T03:14:28;4.65;;;4.25;;
6941;SDS011;3510;43.200;27.920;2023-08-17T03:29:51;4.68;;;4.38;;
6941;SDS011;3510;43.200;27.920;2023-08-17T03:32:17;3.67;;;3.22;;
6941;SDS011;3510;43.200;27.920;2023-08-17T03:34:44;3.83;;;3.53;;
6941;SDS011;3510;43.200;27.920;2023-08-17T03:37:13;4.78;;;4.25;;
6941;SDS011;3510;43.200;27.920;2023-08-17T03:39:39;4.80;;;4.40;;
6941;SDS011;3510;43.200;27.920;2023-08-17T03:42:06;5.35;;;4.30;;
6941;SDS011;3510;43.200;27.920;2023-08-17T03:44:33;16.88;;;4.38;;
6941;SDS011;3510;43.200;27.920;2023-08-17T03:47:00;4.53;;;4.20;;
6941;SDS011;3510;43.200;27.920;2023-08-17T03:49:29;3.97;;;3.67;;
6941;SDS011;3510;43.200;27.920;2023-08-17T03:51:56;6.50;;;4.45;;
6941;SDS011;3510;43.200;27.920;2023-08-17T03:54:23;4.10;;;3.80;;
6941;SDS011;3510;43.200;27.920;2023-08-17T03:56:49;5.78;;;4.40;;
6941;SDS011;3510;43.200;27.920;2023-08-17T03:59:16;4.75;;;3.58;;
6941;SDS011;3510;43.200;27.920;2023-08-17T04:01:43;10.10;;;4.65;;
6941;SDS011;3510;43.200;27.920;2023-08-17T04:04:11;6.53;;;4.25;;
6941;SDS011;3510;43.200;27.920;2023-08-17T04:06:37;5.32;;;4.88;;
6941;SDS011;3510;43.200;27.920;2023-08-17T04:09:06;4.32;;;3.97;;
6941;SDS011;3510;43.200;27.920;2023-08-17T04:11:34;6.75;;;4.07;;
6941;SDS011;3510;43.200;27.920;2023-08-17T04:14:01;4.53;;;4.22;;
6941;SDS011;3510;43.200;27.920;2023-08-17T04:16:28;5.03;;;3.92;;
6941;SDS011;3510;43.200;27.920;2023-08-17T04:18:55;4.35;;;3.85;;
6941;SDS011;3510;43.200;27.920;2023-08-17T04:27:28;9.82;;;5.10;;
6941;SDS011;3510;43.200;27.920;2023-08-17T04:30:09;4.38;;;3.42;;
6941;SDS011;3510;43.200;27.920;2023-08-17T04:32:50;3.70;;;3.42;;
6941;SDS011;3510;43.200;27.920;2023-08-17T04:35:31;5.28;;;4.45;;
6941;SDS011;3510;43.200;27.920;2023-08-17T04:38:11;6.28;;;4.20;;
6941;SDS011;3510;43.200;27.920;2023-08-17T04:40:40;7.57;;;4.40;;
6941;SDS011;3510;43.200;27.920;2023-08-17T04:43:06;4.00;;;3.63;;
6941;SDS011;3510;43.200;27.920;2023-08-17T04:45:33;5.72;;;4.75;;
6941;SDS011;3510;43.200;27.920;2023-08-17T04:48:00;8.93;;;4.20;;
6941;SDS011;3510;43.200;27.920;2023-08-17T04:50:27;6.50;;;4.10;;
6941;SDS011;3510;43.200;27.920;2023-08-17T04:52:53;8.25;;;4.63;;
6941;SDS011;3510;43.200;27.920;2023-08-17T04:55:20;3.80;;;3.58;;
6941;SDS011;3510;43.200;27.920;2023-08-17T04:57:48;4.45;;;4.20;;
6941;SDS011;3510;43.200;27.920;2023-08-17T05:00:15;4.55;;;4.13;;
6941;SDS011;3510;43.200;27.920;2023-08-17T05:02:42;7.80;;;5.60;;
6941;SDS011;3510;43.200;27.920;2023-08-17T05:05:11;6.28;;;4.50;;
6941;SDS011;3510;43.200;27.920;2023-08-17T05:07:41;4.47;;;4.13;;
6941;SDS011;3510;43.200;27.920;2023-08-17T05:10:08;4.55;;;4.15;;
6941;SDS011;3510;43.200;27.920;2023-08-17T05:12:35;4.80;;;4.40;;
6941;SDS011;3510;43.200;27.920;2023-08-17T05:15:03;7.43;;;5.10;;
6941;SDS011;3510;43.200;27.920;2023-08-17T05:17:30;5.57;;;5.03;;
6941;SDS011;3510;43.200;27.920;2023-08-17T05:19:57;5.93;;;5.00;;
6941;SDS011;3510;43.200;27.920;2023-08-17T05:22:24;10.15;;;5.22;;
6941;SDS011;3510;43.200;27.920;2023-08-17T05:24:50;5.20;;;4.70;;
6941;SDS011;3510;43.200;27.920;2023-08-17T05:27:17;7.97;;;4.47;;
6941;SDS011;3510;43.200;27.920;2023-08-17T05:29:44;7.88;;;4.68;;
6941;SDS011;3510;43.200;27.920;2023-08-17T05:32:12;9.23;;;4.95;;
6941;SDS011;3510;43.200;27.920;2023-08-17T05:34:38;4.47;;;4.05;;
6941;SDS011;3510;43.200;27.920;2023-08-17T05:37:05;6.32;;;4.45;;
6941;SDS011;3510;43.200;27.920;2023-08-17T05:39:31;21.67;;;6.25;;
6941;SDS011;3510;43.200;27.920;2023-08-17T05:41:58;6.95;;;4.78;;
6941;SDS011;3510;43.200;27.920;2023-08-17T05:44:25;9.88;;;4.88;;
6941;SDS011;3510;43.200;27.920;2023-08-17T05:46:51;6.70;;;5.30;;
6941;SDS011;3510;43.200;27.920;2023-08-17T05:49:19;5.38;;;5.07;;
6941;SDS011;3510;43.200;27.920;2023-08-17T05:51:46;5.47;;;4.70;;
6941;SDS011;3510;43.200;27.920;2023-08-17T05:54:12;6.65;;;5.18;;
6941;SDS011;3510;43.200;27.920;2023-08-17T05:56:39;6.72;;;5.70;;
6941;SDS011;3510;43.200;27.920;2023-08-17T05:59:10;6.93;;;5.40;;
6941;SDS011;3510;43.200;27.920;2023-08-17T06:01:36;13.32;;;5.85;;
6941;SDS011;3510;43.200;27.920;2023-08-17T06:04:03;7.82;;;5.30;;
6941;SDS011;3510;43.200;27.920;2023-08-17T06:06:32;5.75;;;5.15;;
6941;SDS011;3510;43.200;27.920;2023-08-17T06:08:58;14.48;;;5.95;;
6941;SDS011;3510;43.200;27.920;2023-08-17T06:11:25;7.03;;;6.28;;
6941;SDS011;3510;43.200;27.920;2023-08-17T06:14:06;8.82;;;5.25;;
6941;SDS011;3510;43.200;27.920;2023-08-17T06:16:33;9.05;;;5.55;;
6941;SDS011;3510;43.200;27.920;2023-08-17T06:19:00;6.93;;;5.50;;
6941;SDS011;3510;43.200;27.920;2023-08-17T06:21:42;7.40;;;5.78;;
6941;SDS011;3510;43.200;27.920;2023-08-17T06:24:09;10.93;;;5.65;;
6941;SDS011;3510;43.200;27.920;2023-08-17T06:29:05;10.25;;;5.20;;
6941;SDS011;3510;43.200;27.920;2023-08-17T06:31:32;11.55;;;5.60;;
6941;SDS011;3510;43.200;27.920;2023-08-17T06:33:59;10.13;;;5.25;;
6941;SDS011;3510;43.200;27.920;2023-08-17T06:36:25;9.88;;;5.28;;
6941;SDS011;3510;43.200;27.920;2023-08-17T06:38:53;10.55;;;6.70;;
6941;SDS011;3510;43.200;27.920;2023-08-17T06:41:20;11.13;;;6.45;;
6941;SDS011;3510;43.200;27.920;2023-08-17T06:44:00;9.20;;;5.43;;
6941;SDS011;3510;43.200;27.920;2023-08-17T06:46:27;9.85;;;5.80;;
6941;SDS011;3510;43.200;27.920;2023-08-17T06:48:54;13.38;;;6.13;;
6941;SDS011;3510;43.200;27.920;2023-08-17T06:51:20;9.57;;;5.30;;
6941;SDS011;3510;43.200;27.920;2023-08-17T06:53:49;8.48;;;5.90;;
6941;SDS011;3510;43.200;27.920;2023-08-17T06:56:17;11.75;;;5.40;;
6941;SDS011;3510;43.200;27.920;2023-08-17T06:58:44;10.18;;;6.07;;
6941;SDS011;3510;43.200;27.920;2023-08-17T07:01:11;7.72;;;5.38;;
6941;SDS011;3510;43.200;27.920;2023-08-17T07:03:37;6.47;;;5.78;;
6941;SDS011;3510;43.200;27.920;2023-08-17T07:06:06;8.32;;;5.10;;
6941;SDS011;3510;43.200;27.920;2023-08-17T07:08:34;11.32;;;6.05;;
6941;SDS011;3510;43.200;27.920;2023-08-17T07:11:11;8.80;;;5.03;;
6941;SDS011;3510;43.200;27.920;2023-08-17T07:44:56;11.07;;;6.13;;
6941;SDS011;3510;43.200;27.920;2023-08-17T07:47:23;8.32;;;5.55;;
6941;SDS011;3510;43.200;27.920;2023-08-17T07:49:50;11.27;;;5.13;;
6941;SDS011;3510;43.200;27.920;2023-08-17T07:52:17;16.35;;;6.63;;
6941;SDS011;3510;43.200;27.920;2023-08-17T07:54:45;9.90;;;5.97;;
6941;SDS011;3510;43.200;27.920;2023-08-17T07:57:13;17.05;;;6.68;;
6941;SDS011;3510;43.200;27.920;2023-08-17T07:59:44;7.38;;;6.25;;
6941;SDS011;3510;43.200;27.920;2023-08-17T08:02:10;12.00;;;5.68;;
6941;SDS011;3510;43.200;27.920;2023-08-17T08:04:43;6.18;;;5.57;;
6941;SDS011;3510;43.200;27.920;2023-08-17T08:07:11;9.95;;;5.75;;
6941;SDS011;3510;43.200;27.920;2023-08-17T08:09:38;8.05;;;5.68;;
6941;SDS011;3510;43.200;27.920;2023-08-17T08:12:06;12.23;;;6.90;;
6941;SDS011;3510;43.200;27.920;2023-08-17T08:14:33;6.38;;;5.13;;
6941;SDS011;3510;43.200;27.920;2023-08-17T08:19:47;16.85;;;5.95;;
6941;SDS011;3510;43.200;27.920;2023-08-17T08:22:16;11.23;;;5.93;;
6941;SDS011;3510;43.200;27.920;2023-08-17T08:24:43;11.82;;;5.80;;
6941;SDS011;3510;43.200;27.920;2023-08-17T08:27:09;10.80;;;5.32;;
6941;SDS011;3510;43.200;27.920;2023-08-17T08:29:36;5.43;;;5.10;;
6941;SDS011;3510;43.200;27.920;2023-08-17T08:32:03;6.82;;;5.40;;
6941;SDS011;3510;43.200;27.920;2023-08-17T08:34:34;5.85;;;5.05;;
6941;SDS011;3510;43.200;27.920;2023-08-17T08:37:01;6.68;;;5.22;;
6941;SDS011;3510;43.200;27.920;2023-08-17T08:39:28;7.35;;;5.20;;
6941;SDS011;3510;43.200;27.920;2023-08-17T08:41:54;8.90;;;5.45;;
6941;SDS011;3510;43.200;27.920;2023-08-17T08:44:22;5.70;;;5.18;;
6941;SDS011;3510;43.200;27.920;2023-08-17T08:46:50;7.78;;;5.35;;
6941;SDS011;3510;43.200;27.920;2023-08-17T08:49:36;20.20;;;5.50;;
6941;SDS011;3510;43.200;27.920;2023-08-17T08:52:07;11.57;;;4.68;;
6941;SDS011;3510;43.200;27.920;2023-08-17T08:54:35;13.57;;;5.30;;
6941;SDS011;3510;43.200;27.920;2023-08-17T08:57:05;13.48;;;5.82;;
6941;SDS011;3510;43.200;27.920;2023-08-17T08:59:41;13.75;;;5.30;;
6941;SDS011;3510;43.200;27.920;2023-08-17T09:02:12;7.72;;;5.30;;
6941;SDS011;3510;43.200;27.920;2023-08-17T09:04:43;6.30;;;5.10;;
6941;SDS011;3510;43.200;27.920;2023-08-17T09:07:10;6.35;;;5.05;;
6941;SDS011;3510;43.200;27.920;2023-08-17T09:09:39;14.75;;;5.35;;
6941;SDS011;3510;43.200;27.920;2023-08-17T09:12:20;8.73;;;5.47;;
6941;SDS011;3510;43.200;27.920;2023-08-17T09:14:48;13.73;;;5.53;;
6941;SDS011;3510;43.200;27.920;2023-08-17T09:17:20;7.03;;;4.35;;
6941;SDS011;3510;43.200;27.920;2023-08-17T09:19:59;15.23;;;5.25;;
6941;SDS011;3510;43.200;27.920;2023-08-17T09:22:36;13.52;;;5.25;;
6941;SDS011;3510;43.200;27.920;2023-08-17T09:25:05;8.55;;;4.22;;
6941;SDS011;3510;43.200;27.920;2023-08-17T09:27:35;9.63;;;4.95;;
6941;SDS011;3510;43.200;27.920;2023-08-17T09:30:03;10.95;;;5.28;;
6941;SDS011;3510;43.200;27.920;2023-08-17T09:32:32;11.65;;;4.82;;
6941;SDS011;3510;43.200;27.920;2023-08-17T09:37:56;22.85;;;5.85;;
6941;SDS011;3510;43.200;27.920;2023-08-17T09:40:25;17.05;;;5.88;;
6941;SDS011;3510;43.200;27.920;2023-08-17T09:42:53;19.08;;;5.88;;
6941;SDS011;3510;43.200;27.920;2023-08-17T09:45:20;27.70;;;6.65;;
6941;SDS011;3510;43.200;27.920;2023-08-17T09:47:47;13.23;;;5.40;;
6941;SDS011;3510;43.200;27.920;2023-08-17T09:50:29;10.15;;;4.95;;
6941;SDS011;3510;43.200;27.920;2023-08-17T09:52:58;9.90;;;5.40;;
6941;SDS011;3510;43.200;27.920;2023-08-17T09:55:25;28.02;;;6.53;;
6941;SDS011;3510;43.200;27.920;2023-08-17T09:58:06;13.40;;;4.90;;
6941;SDS011;3510;43.200;27.920;2023-08-17T10:00:47;15.07;;;5.75;;
6941;SDS011;3510;43.200;27.920;2023-08-17T10:03:15;10.90;;;5.30;;
6941;SDS011;3510;43.200;27.920;2023-08-17T10:21:05;15.10;;;5.63;;
6941;SDS011;3510;43.200;27.920;2023-08-17T10:23:36;36.50;;;7.93;;
6941;SDS011;3510;43.200;27.920;2023-08-17T10:26:04;11.63;;;5.72;;
6941;SDS011;3510;43.200;27.920;2023-08-17T10:28:34;35.63;;;6.32;;
6941;SDS011;3510;43.200;27.920;2023-08-17T10:31:15;12.27;;;5.63;;
6941;SDS011;3510;43.200;27.920;2023-08-17T10:33:44;24.00;;;7.43;;
6941;SDS011;3510;43.200;27.920;2023-08-17T10:36:14;8.38;;;6.00;;
6941;SDS011;3510;43.200;27.920;2023-08-17T10:38:41;15.65;;;6.70;;
6941;SDS011;3510;43.200;27.920;2023-08-17T10:41:09;26.88;;;6.80;;
6941;SDS011;3510;43.200;27.920;2023-08-17T10:46:20;6.65;;;5.57;;
6941;SDS011;3510;43.200;27.920;2023-08-17T10:48:48;10.07;;;5.82;;
6941;SDS011;3510;43.200;27.920;2023-08-17T10:51:15;26.30;;;7.43;;
6941;SDS011;3510;43.200;27.920;2023-08-17T10:53:50;7.35;;;6.57;;
6941;SDS011;3510;43.200;27.920;2023-08-17T10:56:19;8.40;;;6.20;;
6941;SDS011;3510;43.200;27.920;2023-08-17T10:58:45;12.25;;;6.20;;
6941;SDS011;3510;43.200;27.920;2023-08-17T11:01:12;16.15;;;6.47;;
6941;SDS011;3510;43.200;27.920;2023-08-17T11:03:45;29.48;;;8.02;;
6941;SDS011;3510;43.200;27.920;2023-08-17T11:06:17;7.95;;;6.05;;
6941;SDS011;3510;43.200;27.920;2023-08-17T11:08:51;18.38;;;7.43;;
6941;SDS011;3510;43.200;27.920;2023-08-17T11:11:21;16.88;;;6.60;;
6941;SDS011;3510;43.200;27.920;2023-08-17T11:13:49;12.77;;;6.28;;
6941;SDS011;3510;43.200;27.920;2023-08-17T11:16:17;12.50;;;6.90;;
6941;SDS011;3510;43.200;27.920;2023-08-17T11:18:59;13.15;;;5.65;;
6941;SDS011;3510;43.200;27.920;2023-08-17T11:21:28;8.43;;;5.93;;
6941;SDS011;3510;43.200;27.920;2023-08-17T11:23:55;6.90;;;5.85;;
6941;SDS011;3510;43.200;27.920;2023-08-17T11:26:24;11.15;;;5.68;;
6941;SDS011;3510;43.200;27.920;2023-08-17T11:29:06;13.07;;;6.93;;
6941;SDS011;3510;43.200;27.920;2023-08-17T11:31:49;22.10;;;6.53;;
6941;SDS011;3510;43.200;27.920;2023-08-17T11:34:16;13.68;;;6.20;;
6941;SDS011;3510;43.200;27.920;2023-08-17T11:43:05;18.33;;;6.68;;
6941;SDS011;3510;43.200;27.920;2023-08-17T11:45:45;16.05;;;6.53;;
6941;SDS011;3510;43.200;27.920;2023-08-17T11:48:26;20.63;;;7.15;;
6941;SDS011;3510;43.200;27.920;2023-08-17T11:51:07;13.25;;;6.68;;
6941;SDS011;3510;43.200;27.920;2023-08-17T11:53:47;19.70;;;6.57;;
6941;SDS011;3510;43.200;27.920;2023-08-17T11:56:16;15.75;;;7.13;;
6941;SDS011;3510;43.200;27.920;2023-08-17T11:58:43;17.23;;;7.50;;
6941;SDS011;3510;43.200;27.920;2023-08-17T12:01:12;15.38;;;6.40;;
6941;SDS011;3510;43.200;27.920;2023-08-17T12:03:53;18.55;;;7.00;;
6941;SDS011;3510;43.200;27.920;2023-08-17T12:06:34;27.02;;;7.35;;
6941;SDS011;3510;43.200;27.920;2023-08-17T12:09:04;25.15;;;7.47;;
6941;SDS011;3510;43.200;27.920;2023-08-17T12:11:47;14.25;;;6.65;;
6941;SDS011;3510;43.200;27.920;2023-08-17T12:14:14;31.65;;;7.25;;
6941;SDS011;3510;43.200;27.920;2023-08-17T12:17:28;41.63;;;7.88;;
6941;SDS011;3510;43.200;27.920;2023-08-17T12:20:02;34.15;;;7.78;;
6941;SDS011;3510;43.200;27.920;2023-08-17T12:22:43;23.08;;;6.68;;
6941;SDS011;3510;43.200;27.920;2023-08-17T12:27:59;10.23;;;6.40;;
6941;SDS011;3510;43.200;27.920;2023-08-17T12:30:27;20.13;;;7.65;;
6941;SDS011;3510;43.200;27.920;2023-08-17T12:32:58;14.27;;;6.35;;
6941;SDS011;3510;43.200;27.920;2023-08-17T12:35:26;11.75;;;6.63;;
6941;SDS011;3510;43.200;27.920;2023-08-17T12:37:53;21.02;;;7.38;;
6941;SDS011;3510;43.200;27.920;2023-08-17T12:40:23;27.02;;;7.88;;
6941;SDS011;3510;43.200;27.920;2023-08-17T12:42:52;17.45;;;7.47;;
6941;SDS011;3510;43.200;27.920;2023-08-17T12:45:19;72.85;;;11.43;;
6941;SDS011;3510;43.200;27.920;2023-08-17T12:47:46;37.10;;;8.05;;
6941;SDS011;3510;43.200;27.920;2023-08-17T12:50:19;62.92;;;9.48;;
6941;SDS011;3510;43.200;27.920;2023-08-17T12:52:46;32.17;;;7.63;;
6941;SDS011;3510;43.200;27.920;2023-08-17T12:55:14;18.27;;;6.88;;
6941;SDS011;3510;43.200;27.920;2023-08-17T12:57:44;36.10;;;8.65;;
6941;SDS011;3510;43.200;27.920;2023-08-17T13:00:11;22.60;;;8.05;;
6941;SDS011;3510;43.200;27.920;2023-08-17T13:02:46;17.42;;;7.18;;
6941;SDS011;3510;43.200;27.920;2023-08-17T13:05:18;52.63;;;9.90;;
6941;SDS011;3510;43.200;27.920;2023-08-17T13:07:44;40.38;;;10.07;;
6941;SDS011;3510;43.200;27.920;2023-08-17T13:10:16;70.88;;;9.95;;
6941;SDS011;3510;43.200;27.920;2023-08-17T13:12:54;17.42;;;7.47;;
6941;SDS011;3510;43.200;27.920;2023-08-17T13:15:33;21.92;;;8.40;;
6941;SDS011;3510;43.200;27.920;2023-08-17T13:18:10;113.20;;;14.13;;
6941;SDS011;3510;43.200;27.920;2023-08-17T13:20:39;20.30;;;8.00;;
6941;SDS011;3510;43.200;27.920;2023-08-17T13:23:06;15.23;;;7.93;;
6941;SDS011;3510;43.200;27.920;2023-08-17T13:25:33;49.38;;;10.77;;
6941;SDS011;3510;43.200;27.920;2023-08-17T13:28:00;44.13;;;9.15;;
6941;SDS011;3510;43.200;27.920;2023-08-17T13:30:35;15.63;;;7.15;;
6941;SDS011;3510;43.200;27.920;2023-08-17T13:33:02;32.28;;;9.10;;
6941;SDS011;3510;43.200;27.920;2023-08-17T13:38:40;60.92;;;10.13;;
6941;SDS011;3510;43.200;27.920;2023-08-17T13:41:08;54.72;;;8.95;;
6941;SDS011;3510;43.200;27.920;2023-08-17T13:43:35;101.70;;;14.43;;
6941;SDS011;3510;43.200;27.920;2023-08-17T13:46:01;88.55;;;10.68;;
6941;SDS011;3510;43.200;27.920;2023-08-17T13:48:28;29.02;;;7.68;;
6941;SDS011;3510;43.200;27.920;2023-08-17T13:50:55;12.52;;;7.45;;
6941;SDS011;3510;43.200;27.920;2023-08-17T13:53:25;25.27;;;6.97;;
6941;SDS011;3510;43.200;27.920;2023-08-17T13:55:52;38.45;;;8.80;;
6941;SDS011;3510;43.200;27.920;2023-08-17T13:58:21;21.67;;;6.68;;
6941;SDS011;3510;43.200;27.920;2023-08-17T14:00:48;25.23;;;6.95;;
6941;SDS011;3510;43.200;27.920;2023-08-17T14:03:23;52.50;;;8.40;;
6941;SDS011;3510;43.200;27.920;2023-08-17T14:05:50;23.15;;;7.10;;
6941;SDS011;3510;43.200;27.920;2023-08-17T14:08:16;38.05;;;7.70;;
6941;SDS011;3510;43.200;27.920;2023-08-17T14:14:27;26.05;;;7.05;;
6941;SDS011;3510;43.200;27.920;2023-08-17T14:17:22;17.30;;;6.82;;
6941;SDS011;3510;43.200;27.920;2023-08-17T14:19:49;20.42;;;6.97;;
6941;SDS011;3510;43.200;27.920;2023-08-17T14:22:16;20.98;;;6.63;;
6941;SDS011;3510;43.200;27.920;2023-08-17T14:24:43;15.75;;;7.15;;
6941;SDS011;3510;43.200;27.920;2023-08-17T14:30:25;27.08;;;8.13;;
6941;SDS011;3510;43.200;27.920;2023-08-17T14:32:52;26.80;;;7.15;;
6941;SDS011;3510;43.200;27.920;2023-08-17T14:35:21;27.20;;;7.55;;
6941;SDS011;3510;43.200;27.920;2023-08-17T14:37:48;15.85;;;6.63;;
6941;SDS011;3510;43.200;27.920;2023-08-17T14:40:15;10.68;;;5.60;;
6941;SDS011;3510;43.200;27.920;2023-08-17T14:42:42;16.55;;;6.22;;
6941;SDS011;3510;43.200;27.920;2023-08-17T14:45:24;25.65;;;7.20;;
6941;SDS011;3510;43.200;27.920;2023-08-17T14:47:55;19.65;;;5.93;;
6941;SDS011;3510;43.200;27.920;2023-08-17T14:50:24;13.68;;;6.43;;
6941;SDS011;3510;43.200;27.920;2023-08-17T14:52:51;9.93;;;6.38;;
6941;SDS011;3510;43.200;27.920;2023-08-17T14:55:20;12.05;;;6.55;;
6941;SDS011;3510;43.200;27.920;2023-08-17T14:57:46;13.73;;;5.85;;
6941;SDS011;3510;43.200;27.920;2023-08-17T15:00:13;10.88;;;6.07;;
6941;SDS011;3510;43.200;27.920;2023-08-17T15:02:43;10.90;;;5.80;;
6941;SDS011;3510;43.200;27.920;2023-08-17T15:05:11;8.07;;;5.47;;
6941;SDS011;3510;43.200;27.920;2023-08-17T15:07:38;13.50;;;6.18;;
6941;SDS011;3510;43.200;27.920;2023-08-17T15:10:05;8.60;;;6.20;;
6941;SDS011;3510;43.200;27.920;2023-08-17T15:12:32;9.35;;;6.63;;
6941;SDS011;3510;43.200;27.920;2023-08-17T15:15:13;11.20;;;6.20;;
6941;SDS011;3510;43.200;27.920;2023-08-17T15:17:45;15.48;;;6.50;;
6941;SDS011;3510;43.200;27.920;2023-08-17T15:20:12;6.75;;;5.68;;
6941;SDS011;3510;43.200;27.920;2023-08-17T15:22:40;21.75;;;6.60;;
6941;SDS011;3510;43.200;27.920;2023-08-17T15:25:06;13.77;;;6.05;;
6941;SDS011;3510;43.200;27.920;2023-08-17T15:27:47;9.82;;;6.85;;
6941;SDS011;3510;43.200;27.920;2023-08-17T15:30:14;10.70;;;7.03;;
6941;SDS011;3510;43.200;27.920;2023-08-17T15:32:57;8.10;;;6.15;;
6941;SDS011;3510;43.200;27.920;2023-08-17T15:35:23;7.40;;;6.43;;
6941;SDS011;3510;43.200;27.920;2023-08-17T15:37:57;14.60;;;5.97;;
6941;SDS011;3510;43.200;27.920;2023-08-17T15:40:23;5.78;;;5.28;;
6941;SDS011;3510;43.200;27.920;2023-08-17T15:43:04;6.78;;;5.45;;
6941;SDS011;3510;43.200;27.920;2023-08-17T15:45:45;5.82;;;5.32;;
6941;SDS011;3510;43.200;27.920;2023-08-17T15:57:43;8.73;;;5.50;;
6941;SDS011;3510;43.200;27.920;2023-08-17T16:00:10;12.63;;;7.32;;
6941;SDS011;3510;43.200;27.920;2023-08-17T16:02:37;7.20;;;6.47;;
6941;SDS011;3510;43.200;27.920;2023-08-17T16:05:04;10.13;;;6.07;;
6941;SDS011;3510;43.200;27.920;2023-08-17T16:07:31;10.35;;;6.18;;
6941;SDS011;3510;43.200;27.920;2023-08-17T16:09:58;8.15;;;6.32;;
6941;SDS011;3510;43.200;27.920;2023-08-17T16:12:25;7.95;;;5.75;;
6941;SDS011;3510;43.200;27.920;2023-08-17T16:15:08;6.80;;;5.57;;
6941;SDS011;3510;43.200;27.920;2023-08-17T16:17:35;7.55;;;6.05;;
6941;SDS011;3510;43.200;27.920;2023-08-17T16:20:02;7.47;;;6.00;;
6941;SDS011;3510;43.200;27.920;2023-08-17T16:22:29;10.73;;;6.10;;
6941;SDS011;3510;43.200;27.920;2023-08-17T16:24:55;7.95;;;6.60;;
6941;SDS011;3510;43.200;27.920;2023-08-17T16:27:36;9.25;;;6.90;;
6941;SDS011;3510;43.200;27.920;2023-08-17T16:48:53;6.32;;;5.70;;
6941;SDS011;3510;43.200;27.920;2023-08-17T16:51:19;7.38;;;6.57;;
6941;SDS011;3510;43.200;27.920;2023-08-17T16:54:00;5.68;;;5.20;;
6941;SDS011;3510;43.200;27.920;2023-08-17T16:56:27;11.68;;;5.55;;
6941;SDS011;3510;43.200;27.920;2023-08-17T16:58:54;5.88;;;5.32;;
6941;SDS011;3510;43.200;27.920;2023-08-17T17:01:21;5.90;;;5.13;;
6941;SDS011;3510;43.200;27.920;2023-08-17T17:03:50;14.85;;;6.75;;
6941;SDS011;3510;43.200;27.920;2023-08-17T17:06:17;7.38;;;5.60;;
6941;SDS011;3510;43.200;27.920;2023-08-17T17:08:47;7.45;;;5.80;;
6941;SDS011;3510;43.200;27.920;2023-08-17T17:11:13;10.63;;;6.53;;
6941;SDS011;3510;43.200;27.920;2023-08-17T17:13:40;5.80;;;5.35;;
6941;SDS011;3510;43.200;27.920;2023-08-17T17:16:21;6.50;;;5.68;;
6941;SDS011;3510;43.200;27.920;2023-08-17T17:18:49;13.85;;;6.63;;
6941;SDS011;3510;43.200;27.920;2023-08-17T17:21:16;8.50;;;6.88;;
6941;SDS011;3510;43.200;27.920;2023-08-17T17:23:43;10.98;;;5.15;;
6941;SDS011;3510;43.200;27.920;2023-08-17T17:26:11;8.63;;;5.32;;
6941;SDS011;3510;43.200;27.920;2023-08-17T17:28:38;9.32;;;5.90;;
6941;SDS011;3510;43.200;27.920;2023-08-17T17:31:05;10.93;;;5.65;;
6941;SDS011;3510;43.200;27.920;2023-08-17T17:33:35;9.57;;;6.07;;
6941;SDS011;3510;43.200;27.920;2023-08-17T17:41:42;13.60;;;9.95;;
6941;SDS011;3510;43.200;27.920;2023-08-17T17:44:22;16.10;;;8.80;;
6941;SDS011;3510;43.200;27.920;2023-08-17T17:46:49;16.95;;;9.60;;
6941;SDS011;3510;43.200;27.920;2023-08-17T17:49:16;9.52;;;7.32;;
6941;SDS011;3510;43.200;27.920;2023-08-17T17:51:45;13.95;;;8.35;;
6941;SDS011;3510;43.200;27.920;2023-08-17T17:54:12;6.97;;;6.43;;
6941;SDS011;3510;43.200;27.920;2023-08-17T17:56:46;6.10;;;5.28;;
6941;SDS011;3510;43.200;27.920;2023-08-17T17:59:34;7.72;;;6.22;;
6941;SDS011;3510;43.200;27.920;2023-08-17T18:02:01;9.10;;;7.20;;
6941;SDS011;3510;43.200;27.920;2023-08-17T18:04:28;9.02;;;7.88;;
6941;SDS011;3510;43.200;27.920;2023-08-17T18:06:59;7.07;;;5.90;;